Terminal Aerodrome Forecast
Issued by NWS Tuscon, AZ

Current Version | Previous Version | Text Only | Print | Product List | Glossary On
Versions: 1 2 3 4 5 6 7 8 9 10 11 12 13 14
799
FTUS45 KTWC 241120
TAFDUG
TAF
KDUG 241120Z 2412/2512 02007KT P6SM SKC
     FM241800 32011G18KT P6SM SKC
     FM250200 35007KT P6SM SKC
     FM250900 VRB03KT P6SM SCT250=

USA.gov is the U.S. government's official web portal to all federal, state and local government web resources and services.